createdAt,value
2022-12-09T00:03:01.956Z,45.74
2022-12-09T00:08:03.994Z,45.58
2022-12-09T00:13:05.973Z,45.58
2022-12-09T00:18:08.292Z,45.56
2022-12-09T00:23:10.199Z,45.55
2022-12-09T00:28:11.897Z,45.67
2022-12-09T00:33:13.624Z,45.67
2022-12-09T00:38:15.248Z,45.68
2022-12-09T00:43:17.167Z,45.74
2022-12-09T00:48:25.724Z,45.71
2022-12-09T00:53:28.007Z,45.64
2022-12-09T00:58:29.773Z,45.71
2022-12-09T01:03:32.033Z,45.80
2022-12-09T01:08:38.348Z,45.88
2022-12-09T01:13:40.819Z,45.99
2022-12-09T01:18:42.823Z,45.99
2022-12-09T01:23:45.351Z,45.85
2022-12-09T01:28:51.284Z,45.91
2022-12-09T01:33:54.132Z,45.87
2022-12-09T01:38:57.134Z,45.96
2022-12-09T01:44:07.534Z,46.10
2022-12-09T01:49:11.966Z,45.92
2022-12-09T01:54:14.209Z,45.86
2022-12-09T01:59:16.516Z,45.78
2022-12-09T02:04:19.074Z,45.76
2022-12-09T02:09:21.417Z,45.92
2022-12-09T02:14:29.603Z,46.12
2022-12-09T02:19:35.054Z,46.08
2022-12-09T02:24:50.474Z,46.13
2022-12-09T02:30:03.077Z,46.17
2022-12-09T02:35:10.208Z,46.01
2022-12-09T02:40:34.097Z,46.06
2022-12-09T02:45:37.699Z,46.00
2022-12-09T02:50:41.175Z,46.07
2022-12-09T02:55:45.521Z,46.12
2022-12-09T03:00:47.980Z,46.05
2022-12-09T03:05:56.391Z,45.98
2022-12-09T03:11:03.049Z,45.98
2022-12-09T03:16:11.585Z,46.06
2022-12-09T03:21:15.243Z,45.98
2022-12-09T03:26:17.909Z,46.11
2022-12-09T03:31:23.104Z,46.01
2022-12-09T03:36:27.047Z,46.09
2022-12-09T03:41:30.358Z,46.17
2022-12-09T03:46:32.276Z,46.18
2022-12-09T03:51:40.507Z,45.94
2022-12-09T03:56:45.102Z,45.93
2022-12-09T04:01:47.266Z,46.00
2022-12-09T04:06:51.073Z,45.83
2022-12-09T04:11:53.060Z,45.76
2022-12-09T04:16:55.331Z,45.86
2022-12-09T04:21:57.584Z,45.86
2022-12-09T04:26:59.564Z,45.97
2022-12-09T04:32:01.356Z,45.90
2022-12-09T04:37:03.230Z,45.95
2022-12-09T04:42:05.141Z,45.88
2022-12-09T04:47:07.090Z,45.86
2022-12-09T04:52:09.259Z,45.97
2022-12-09T04:57:12.430Z,45.93
2022-12-09T05:02:14.449Z,46.04
2022-12-09T05:07:16.516Z,46.13
2022-12-09T05:12:18.951Z,46.33
2022-12-09T05:17:21.141Z,46.30
2022-12-09T05:22:23.342Z,46.19
2022-12-09T05:27:25.526Z,46.03
2022-12-09T05:32:30.629Z,46.04
2022-12-09T05:37:32.845Z,46.32
2022-12-09T05:42:40.946Z,46.14
2022-12-09T05:47:43.457Z,46.11
2022-12-09T05:52:45.587Z,46.13
2022-12-09T05:57:47.662Z,46.33
2022-12-09T06:02:49.522Z,46.16
2022-12-09T06:07:51.571Z,46.31
2022-12-09T06:12:54.830Z,46.45
2022-12-09T06:17:56.670Z,46.82
2022-12-09T06:22:58.894Z,46.63
2022-12-09T06:28:00.879Z,46.54
2022-12-09T06:33:03.180Z,46.64
2022-12-09T06:38:11.394Z,46.65
2022-12-09T06:43:13.903Z,46.67
2022-12-09T06:48:15.930Z,46.84
2022-12-09T06:53:18.830Z,46.87
2022-12-09T06:58:20.988Z,46.77
2022-12-09T07:03:23.450Z,47.00
2022-12-09T07:08:25.641Z,46.70
2022-12-09T07:18:17.480Z,47.25
2022-12-09T07:23:19.565Z,46.98
2022-12-09T07:28:21.574Z,46.90
2022-12-09T07:33:23.463Z,46.93
2022-12-09T07:38:27.030Z,46.98
2022-12-09T07:43:29.511Z,46.88
2022-12-09T07:48:31.307Z,46.80
2022-12-09T07:53:37.427Z,46.78
2022-12-09T07:58:39.103Z,46.84
2022-12-09T08:03:42.474Z,46.96
2022-12-09T08:08:45.383Z,46.77
2022-12-09T08:13:47.549Z,46.73
2022-12-09T08:18:50.630Z,46.58
2022-12-09T08:23:52.970Z,46.86
2022-12-09T08:28:55.730Z,46.88
2022-12-09T08:33:57.819Z,46.95
2022-12-09T08:39:01.500Z,46.98
2022-12-09T08:44:14.440Z,47.09
2022-12-09T08:49:19.046Z,47.10
2022-12-09T08:54:21.585Z,47.24
2022-12-09T08:59:26.209Z,47.11
2022-12-09T09:04:33.862Z,47.01
2022-12-09T09:09:35.791Z,46.59
2022-12-09T09:14:38.407Z,46.41
2022-12-09T09:19:40.892Z,46.51
2022-12-09T09:24:43.001Z,46.46
2022-12-09T09:29:45.097Z,46.53
2022-12-09T09:34:50.656Z,46.55
2022-12-09T09:39:52.750Z,46.05
2022-12-09T09:44:55.636Z,45.47
2022-12-09T09:50:19.715Z,45.60
2022-12-09T09:55:47.602Z,45.79
2022-12-09T10:01:13.343Z,45.91
2022-12-09T10:06:36.419Z,45.82
2022-12-09T10:12:04.885Z,45.38
2022-12-09T10:17:22.104Z,45.34
2022-12-09T10:22:30.685Z,45.79
2022-12-09T10:27:56.919Z,45.23
2022-12-09T10:32:58.789Z,45.33
2022-12-09T10:38:09.878Z,45.39
2022-12-09T10:43:35.261Z,45.24
2022-12-09T10:48:53.313Z,44.41
2022-12-09T10:54:01.773Z,44.83
2022-12-09T10:59:24.826Z,44.92
2022-12-09T11:04:32.911Z,45.12
2022-12-09T11:09:40.599Z,45.07
2022-12-09T11:14:52.686Z,45.13
2022-12-09T11:20:24.414Z,45.15
2022-12-09T11:25:36.318Z,45.25
2022-12-09T11:36:36.823Z,44.72
2022-12-09T11:42:11.436Z,44.78
2022-12-09T11:48:13.469Z,45.08
2022-12-09T11:53:30.622Z,44.97
2022-12-09T11:58:50.159Z,45.15
2022-12-09T12:04:05.868Z,45.44
2022-12-09T12:09:16.954Z,45.41
2022-12-09T12:14:27.638Z,45.44
2022-12-09T12:19:35.824Z,45.42
2022-12-09T12:24:49.987Z,45.82
2022-12-09T12:30:17.423Z,45.59
2022-12-09T12:35:21.909Z,45.68
2022-12-09T12:40:56.465Z,45.93
2022-12-09T12:46:17.805Z,45.69
2022-12-09T12:51:34.211Z,45.30
2022-12-09T12:56:47.714Z,44.85
2022-12-09T13:02:09.456Z,44.87
2022-12-09T13:07:33.335Z,45.07
2022-12-09T13:13:01.502Z,45.13
2022-12-09T13:18:09.162Z,45.08
2022-12-09T13:23:29.134Z,45.24
2022-12-09T13:28:39.071Z,45.16
2022-12-09T13:34:02.975Z,44.97
2022-12-09T13:39:05.218Z,44.67
2022-12-09T13:44:11.139Z,44.91
2022-12-09T13:49:26.814Z,45.18
2022-12-09T13:54:29.496Z,45.56
2022-12-09T13:59:52.080Z,45.69
2022-12-09T14:05:07.731Z,45.79
2022-12-09T14:10:43.737Z,45.76
2022-12-09T14:15:47.983Z,45.76
2022-12-09T14:21:18.716Z,45.89
2022-12-09T14:26:40.369Z,46.09
2022-12-09T14:31:55.479Z,46.09
2022-12-09T14:37:31.618Z,45.46
2022-12-09T14:42:51.600Z,45.23
2022-12-09T14:47:53.747Z,45.23
2022-12-09T14:53:03.195Z,44.94
2022-12-09T14:58:05.403Z,44.47
2022-12-09T15:03:44.947Z,44.74
2022-12-09T15:08:42.952Z,44.99
2022-12-09T15:13:47.974Z,45.52
2022-12-09T15:18:51.140Z,45.81
2022-12-09T15:23:53.152Z,46.21
2022-12-09T15:28:56.613Z,46.56
2022-12-09T15:34:07.989Z,46.96
2022-12-09T15:39:13.354Z,47.14
2022-12-09T15:44:19.365Z,47.44
2022-12-09T15:49:28.701Z,47.73
2022-12-09T15:54:36.394Z,48.02
2022-12-09T15:59:55.332Z,47.91
2022-12-09T16:05:00.480Z,48.01
2022-12-09T16:10:07.803Z,48.16
2022-12-09T16:15:12.665Z,48.44
2022-12-09T16:20:37.702Z,48.65
2022-12-09T16:25:46.004Z,48.79
2022-12-09T16:30:47.797Z,48.83
2022-12-09T16:36:02.578Z,48.80
2022-12-09T16:41:08.290Z,48.82
2022-12-09T16:46:12.883Z,48.88
2022-12-09T16:51:17.725Z,48.97
2022-12-09T16:56:26.032Z,49.22
2022-12-09T17:01:35.184Z,49.24
2022-12-09T17:06:36.773Z,49.38
2022-12-09T17:11:38.432Z,49.39
2022-12-09T17:16:40.029Z,49.40
2022-12-09T17:21:43.286Z,49.35
2022-12-09T17:26:44.899Z,49.45
2022-12-09T17:31:49.545Z,49.48
2022-12-09T17:36:51.353Z,49.51
2022-12-09T17:41:52.839Z,49.59
2022-12-09T17:46:55.485Z,49.63
2022-12-09T17:51:57.212Z,49.72
2022-12-09T17:56:58.786Z,49.94
2022-12-09T18:02:03.438Z,50.28
2022-12-09T18:07:05.142Z,50.48
2022-12-09T18:12:07.548Z,50.63
2022-12-09T18:17:09.197Z,50.56
2022-12-09T18:22:10.944Z,50.65
2022-12-09T18:27:12.510Z,50.68
2022-12-09T18:32:14.079Z,50.68
2022-12-09T18:37:15.560Z,50.85
2022-12-09T18:42:17.688Z,50.82
2022-12-09T18:47:19.327Z,50.80
2022-12-09T18:52:20.882Z,50.96
2022-12-09T18:57:27.496Z,50.87
2022-12-09T19:02:32.121Z,50.79
2022-12-09T19:07:33.678Z,50.67
2022-12-09T19:12:56.354Z,50.81
2022-12-09T19:17:56.868Z,50.93
2022-12-09T19:22:58.624Z,50.83
2022-12-09T19:28:00.163Z,50.77
2022-12-09T19:33:01.761Z,50.64
2022-12-09T19:38:03.323Z,50.65
2022-12-09T19:43:04.944Z,50.44
2022-12-09T19:48:07.002Z,50.38
2022-12-09T19:53:10.021Z,50.36
2022-12-09T19:58:11.638Z,50.33
2022-12-09T20:03:13.311Z,50.43
2022-12-09T20:08:15.000Z,50.45
2022-12-09T20:13:18.196Z,50.32
2022-12-09T20:18:20.912Z,50.35
2022-12-09T20:23:22.538Z,50.34
2022-12-09T20:28:24.061Z,50.29
2022-12-09T20:33:25.630Z,50.42
2022-12-09T20:38:27.145Z,50.38
2022-12-09T20:43:30.363Z,50.32
2022-12-09T20:48:31.915Z,50.42
2022-12-09T20:53:36.277Z,50.36
2022-12-09T20:58:38.514Z,50.32
2022-12-09T21:03:41.080Z,50.27
2022-12-09T21:08:43.694Z,50.22
2022-12-09T21:13:47.563Z,50.17
2022-12-09T21:18:50.700Z,50.10
2022-12-09T21:23:54.367Z,50.23
2022-12-09T21:28:58.226Z,50.19
2022-12-09T21:34:03.351Z,50.32
2022-12-09T21:39:06.959Z,50.34
2022-12-09T21:44:12.966Z,50.32
2022-12-09T21:49:14.767Z,50.37
2022-12-09T21:54:17.334Z,50.18
2022-12-09T21:59:19.216Z,50.12
2022-12-09T22:04:20.760Z,50.30
2022-12-09T22:09:27.706Z,50.74
2022-12-09T22:14:30.267Z,50.84
2022-12-09T22:19:31.849Z,50.55
2022-12-09T22:24:33.597Z,50.43
2022-12-09T22:29:35.494Z,50.62
2022-12-09T22:34:42.306Z,50.54
2022-12-09T22:39:45.244Z,50.52
2022-12-09T22:44:46.881Z,50.48
2022-12-09T22:49:48.401Z,50.44
2022-12-09T22:54:50.271Z,50.70
2022-12-09T22:59:51.850Z,50.88
2022-12-09T23:04:53.452Z,50.68
2022-12-09T23:09:57.571Z,50.68
2022-12-09T23:14:59.152Z,50.68
2022-12-09T23:20:00.728Z,50.94
2022-12-09T23:25:02.256Z,51.13
2022-12-09T23:30:06.077Z,51.04
2022-12-09T23:36:26.655Z,54.80
2022-12-09T23:41:28.780Z,50.94
2022-12-09T23:46:30.628Z,51.05
2022-12-09T23:51:34.457Z,51.02
2022-12-09T23:56:39.080Z,50.96
